Time;durP1;ratioP1;P1;durP2;ratioP2;P2;SDS_P1;SDS_P2;PMS_P1;PMS_P2;Temp;Humidity;BMP_temperature;BMP_pressure;BME280_temperature;BME280_humidity;BME280_pressure;Samples;Min_cycle;Max_cycle;Signal;HPM_P1;HPM_P2
2021/04/30 00:01:17;;;;;;;19.83;8.93;;;;;;;;;;5062166;28;20189;-70
2021/04/30 00:03:42;;;;;;;16.67;8.13;;;;;;;;;;5053447;28;20196;-69
2021/04/30 00:06:07;;;;;;;14.10;7.07;;;;;;;;;;5056629;28;20263;-68
2021/04/30 00:08:33;;;;;;;12.00;8.33;;;;;;;;;;5056906;28;20251;-70
2021/04/30 00:10:58;;;;;;;13.63;8.00;;;;;;;;;;5064402;28;20193;-69
2021/04/30 00:13:24;;;;;;;18.77;7.90;;;;;;;;;;5056892;28;20643;-70
2021/04/30 00:15:49;;;;;;;30.93;8.63;;;;;;;;;;5054040;28;20178;-70
2021/04/30 00:18:14;;;;;;;17.87;7.63;;;;;;;;;;5061299;28;20197;-69
2021/04/30 00:20:46;;;;;;;16.10;7.47;;;;;;;;;;5056069;28;20181;-69
2021/04/30 00:23:14;;;;;;;12.93;7.23;;;;;;;;;;5060194;28;20212;-69
2021/04/30 00:25:40;;;;;;;15.70;6.83;;;;;;;;;;5057355;28;20177;-69
2021/04/30 00:28:05;;;;;;;15.57;6.97;;;;;;;;;;5060625;28;20754;-70
2021/04/30 00:30:31;;;;;;;14.23;6.63;;;;;;;;;;5056232;28;20181;-70
2021/04/30 00:32:56;;;;;;;21.53;6.93;;;;;;;;;;5059154;28;20327;-69
2021/04/30 00:35:21;;;;;;;13.73;8.47;;;;;;;;;;5058871;28;20177;-69
2021/04/30 00:37:46;;;;;;;14.30;6.60;;;;;;;;;;5061327;28;20279;-69
2021/04/30 00:40:11;;;;;;;13.33;6.77;;;;;;;;;;5066254;28;20266;-69
2021/04/30 00:42:37;;;;;;;14.27;7.53;;;;;;;;;;5060235;28;20193;-69
2021/04/30 00:45:06;;;;;;;14.37;7.10;;;;;;;;;;5068826;28;20177;-68
2021/04/30 00:47:32;;;;;;;17.07;8.53;;;;;;;;;;5066759;28;20254;-69
2021/04/30 00:50:00;;;;;;;19.00;7.63;;;;;;;;;;5061473;28;20187;-69
2021/04/30 00:52:25;;;;;;;13.67;6.80;;;;;;;;;;5060305;28;20260;-69
2021/04/30 00:54:50;;;;;;;12.93;6.20;;;;;;;;;;5065522;28;20670;-69
2021/04/30 00:57:16;;;;;;;14.60;6.23;;;;;;;;;;5059864;28;20215;-69
2021/04/30 00:59:42;;;;;;;18.30;6.40;;;;;;;;;;5055400;28;20273;-69
2021/04/30 01:02:07;;;;;;;11.33;5.60;;;;;;;;;;5052810;28;20193;-69
2021/04/30 01:04:32;;;;;;;12.10;6.27;;;;;;;;;;5055797;28;20197;-67
2021/04/30 01:06:58;;;;;;;12.83;6.77;;;;;;;;;;5057608;28;20260;-69
2021/04/30 01:09:23;;;;;;;16.57;6.63;;;;;;;;;;5058116;28;20206;-69
2021/04/30 01:11:49;;;;;;;14.93;6.30;;;;;;;;;;5057090;28;20201;-68
2021/04/30 01:14:14;;;;;;;15.60;6.53;;;;;;;;;;5059894;28;20176;-69
2021/04/30 01:16:39;;;;;;;10.97;6.00;;;;;;;;;;5058155;28;20199;-69
2021/04/30 01:19:04;;;;;;;16.73;5.97;;;;;;;;;;5066043;28;20264;-69
2021/04/30 01:21:30;;;;;;;16.93;5.80;;;;;;;;;;5054693;28;20186;-69
2021/04/30 01:23:55;;;;;;;14.30;5.73;;;;;;;;;;5060878;28;20185;-69
2021/04/30 01:26:20;;;;;;;15.87;6.57;;;;;;;;;;5051244;28;20635;-69
2021/04/30 01:28:46;;;;;;;17.07;5.70;;;;;;;;;;5061868;28;20238;-69
2021/04/30 01:31:12;;;;;;;15.07;6.47;;;;;;;;;;5063887;28;20200;-68
2021/04/30 01:33:38;;;;;;;11.00;5.20;;;;;;;;;;5060009;28;20181;-68
2021/04/30 01:36:03;;;;;;;16.93;5.73;;;;;;;;;;5063595;28;20208;-69
2021/04/30 01:38:28;;;;;;;16.23;5.80;;;;;;;;;;5060014;28;20228;-68
2021/04/30 01:40:54;;;;;;;12.63;6.00;;;;;;;;;;5056643;28;20288;-70
2021/04/30 01:43:20;;;;;;;13.30;5.47;;;;;;;;;;5053089;28;20205;-69
2021/04/30 01:45:55;;;;;;;14.03;5.20;;;;;;;;;;5061378;28;20181;-69
2021/04/30 01:48:25;;;;;;;14.23;5.33;;;;;;;;;;5057276;28;20176;-68
2021/04/30 01:50:50;;;;;;;13.50;4.93;;;;;;;;;;5058627;28;20632;-69
2021/04/30 01:53:16;;;;;;;16.00;5.30;;;;;;;;;;5051337;28;20209;-69
2021/04/30 01:55:42;;;;;;;10.23;4.70;;;;;;;;;;5066185;28;20277;-70
2021/04/30 01:58:07;;;;;;;17.93;5.80;;;;;;;;;;5063905;28;20272;-69
2021/04/30 02:00:33;;;;;;;11.77;4.97;;;;;;;;;;5063022;28;20205;-69
2021/04/30 02:02:59;;;;;;;17.63;5.47;;;;;;;;;;5064536;28;20201;-69
2021/04/30 02:05:28;;;;;;;15.10;5.10;;;;;;;;;;5064309;28;20178;-69
2021/04/30 02:07:54;;;;;;;13.00;5.20;;;;;;;;;;5067377;28;20184;-69
2021/04/30 02:10:23;;;;;;;14.30;5.67;;;;;;;;;;5064216;28;20191;-68
2021/04/30 02:12:48;;;;;;;10.00;5.13;;;;;;;;;;5067306;28;20672;-68
2021/04/30 02:15:14;;;;;;;11.40;5.60;;;;;;;;;;5059088;28;20208;-69
2021/04/30 02:17:40;;;;;;;12.53;5.10;;;;;;;;;;5061802;28;20289;-69
2021/04/30 02:20:06;;;;;;;11.57;6.07;;;;;;;;;;5063136;28;20558;-68
2021/04/30 02:22:31;;;;;;;14.00;5.70;;;;;;;;;;5067060;28;20207;-69
2021/04/30 02:24:57;;;;;;;13.70;6.03;;;;;;;;;;5052738;28;20554;-69
2021/04/30 02:27:22;;;;;;;15.37;6.10;;;;;;;;;;5057957;28;20181;-69
2021/04/30 02:29:48;;;;;;;14.70;6.73;;;;;;;;;;5064867;28;20227;-68
2021/04/30 02:32:13;;;;;;;19.67;5.57;;;;;;;;;;5069826;28;20409;-69
2021/04/30 02:34:38;;;;;;;18.33;6.37;;;;;;;;;;5055239;28;20606;-68
2021/04/30 02:37:03;;;;;;;21.93;6.17;;;;;;;;;;5068533;28;20291;-69
2021/04/30 02:39:28;;;;;;;14.20;5.73;;;;;;;;;;5061625;28;20529;-69
2021/04/30 02:41:54;;;;;;;15.47;6.53;;;;;;;;;;5058933;28;20231;-69
2021/04/30 02:44:19;;;;;;;11.53;5.60;;;;;;;;;;5061622;28;20186;-69
2021/04/30 02:46:44;;;;;;;13.70;6.10;;;;;;;;;;5067163;28;20197;-69
2021/04/30 02:49:14;;;;;;;11.50;5.50;;;;;;;;;;5068779;28;20643;-68
2021/04/30 02:51:39;;;;;;;16.30;6.77;;;;;;;;;;5062524;28;20250;-68
2021/04/30 02:54:04;;;;;;;16.37;7.23;;;;;;;;;;5062486;28;20793;-69
2021/04/30 02:56:31;;;;;;;16.13;6.43;;;;;;;;;;5063284;28;20209;-68
2021/04/30 02:58:56;;;;;;;17.43;5.63;;;;;;;;;;5057297;28;20204;-69
2021/04/30 03:01:22;;;;;;;12.93;6.10;;;;;;;;;;5064775;28;20682;-69
2021/04/30 03:03:47;;;;;;;14.17;5.83;;;;;;;;;;5067358;28;20280;-69
2021/04/30 03:06:12;;;;;;;13.57;5.97;;;;;;;;;;5063202;28;20180;-68
2021/04/30 03:08:37;;;;;;;15.07;6.00;;;;;;;;;;5063250;28;20190;-69
2021/04/30 03:11:02;;;;;;;12.40;5.43;;;;;;;;;;5063520;28;20202;-69
2021/04/30 03:13:28;;;;;;;17.40;6.53;;;;;;;;;;5062007;28;20744;-69
2021/04/30 03:15:53;;;;;;;12.57;5.87;;;;;;;;;;5064058;28;20176;-68
2021/04/30 03:18:18;;;;;;;10.37;6.17;;;;;;;;;;5065291;28;20627;-69
2021/04/30 03:20:43;;;;;;;15.70;5.83;;;;;;;;;;5072590;28;20252;-69
2021/04/30 03:23:08;;;;;;;17.30;8.03;;;;;;;;;;5060248;28;20196;-70
2021/04/30 03:25:34;;;;;;;19.73;5.87;;;;;;;;;;5054092;28;20170;-68
2021/04/30 03:27:59;;;;;;;13.30;5.40;;;;;;;;;;5062488;28;20268;-70
2021/04/30 03:30:24;;;;;;;14.50;5.43;;;;;;;;;;5066216;28;20228;-69
2021/04/30 03:32:49;;;;;;;16.50;5.83;;;;;;;;;;5068664;28;20201;-70
2021/04/30 03:35:18;;;;;;;18.10;5.90;;;;;;;;;;5067289;28;20227;-69
2021/04/30 03:37:43;;;;;;;16.73;6.67;;;;;;;;;;5067563;28;20571;-69
2021/04/30 03:40:09;;;;;;;16.20;6.57;;;;;;;;;;5060029;28;20173;-69
2021/04/30 03:42:34;;;;;;;13.57;6.17;;;;;;;;;;5060316;28;20204;-69
2021/04/30 03:44:59;;;;;;;16.83;5.80;;;;;;;;;;5058179;28;20252;-69
2021/04/30 03:47:25;;;;;;;16.33;5.13;;;;;;;;;;5063022;28;20272;-69
2021/04/30 03:49:50;;;;;;;17.90;6.23;;;;;;;;;;5072330;28;20177;-70
2021/04/30 03:52:15;;;;;;;15.07;6.40;;;;;;;;;;5059307;28;20193;-69
2021/04/30 03:54:40;;;;;;;15.03;6.70;;;;;;;;;;5065136;28;20203;-69
2021/04/30 03:57:05;;;;;;;16.20;7.47;;;;;;;;;;5067172;28;20216;-70
2021/04/30 03:59:31;;;;;;;10.07;5.77;;;;;;;;;;5055648;28;20178;-68
2021/04/30 04:01:56;;;;;;;20.83;8.93;;;;;;;;;;5068467;28;20189;-70
2021/04/30 04:04:21;;;;;;;12.73;6.30;;;;;;;;;;5067614;28;20679;-69
2021/04/30 04:06:46;;;;;;;13.10;6.00;;;;;;;;;;5063543;28;20181;-70
2021/04/30 04:09:11;;;;;;;13.57;6.53;;;;;;;;;;5060411;28;20231;-69
2021/04/30 04:11:37;;;;;;;13.23;5.33;;;;;;;;;;5066161;28;20205;-69
2021/04/30 04:14:02;;;;;;;17.70;6.57;;;;;;;;;;5061768;28;20177;-69
2021/04/30 04:16:27;;;;;;;16.13;6.17;;;;;;;;;;5061880;28;20593;-70
2021/04/30 04:18:52;;;;;;;13.90;6.37;;;;;;;;;;5066637;28;20176;-69
2021/04/30 04:21:17;;;;;;;18.33;6.47;;;;;;;;;;5065405;28;20284;-69
2021/04/30 04:23:43;;;;;;;13.37;7.00;;;;;;;;;;5062550;28;20264;-69
2021/04/30 04:26:08;;;;;;;20.07;6.93;;;;;;;;;;5066951;28;20161;-69
2021/04/30 04:28:33;;;;;;;13.47;7.23;;;;;;;;;;5060109;28;20193;-69
2021/04/30 04:30:59;;;;;;;18.07;7.37;;;;;;;;;;5066480;28;20189;-70
2021/04/30 04:33:24;;;;;;;16.13;6.93;;;;;;;;;;5062235;28;20721;-70
2021/04/30 04:35:49;;;;;;;18.27;6.70;;;;;;;;;;5057565;28;20256;-69
2021/04/30 04:38:14;;;;;;;14.77;7.63;;;;;;;;;;5063179;28;20238;-67
2021/04/30 04:40:39;;;;;;;13.57;7.03;;;;;;;;;;5065171;28;20595;-69
2021/04/30 04:43:05;;;;;;;16.60;8.10;;;;;;;;;;5065527;28;20201;-69
2021/04/30 04:45:30;;;;;;;17.33;9.53;;;;;;;;;;5069991;28;20173;-69
2021/04/30 04:47:55;;;;;;;15.37;6.70;;;;;;;;;;5065342;28;20603;-68
2021/04/30 04:50:21;;;;;;;14.17;7.37;;;;;;;;;;5067371;28;20181;-70
2021/04/30 04:52:46;;;;;;;12.63;7.40;;;;;;;;;;5061291;28;20228;-69
2021/04/30 04:55:12;;;;;;;18.87;8.40;;;;;;;;;;5068874;28;20220;-69
2021/04/30 04:57:42;;;;;;;16.93;7.67;;;;;;;;;;5065678;28;20658;-70
2021/04/30 05:00:07;;;;;;;16.23;7.73;;;;;;;;;;5056136;28;20173;-70
2021/04/30 05:02:33;;;;;;;18.63;8.17;;;;;;;;;;5062375;28;20201;-69
2021/04/30 05:04:58;;;;;;;19.20;8.13;;;;;;;;;;5055610;28;20172;-70
2021/04/30 05:07:23;;;;;;;16.57;8.00;;;;;;;;;;5054290;28;20177;-69
2021/04/30 05:09:48;;;;;;;14.00;7.83;;;;;;;;;;5061895;28;20186;-69
2021/04/30 05:12:13;;;;;;;18.03;8.27;;;;;;;;;;5062135;28;20201;-69
2021/04/30 05:14:38;;;;;;;16.60;8.17;;;;;;;;;;5063712;28;20185;-69
2021/04/30 05:17:04;;;;;;;18.83;9.70;;;;;;;;;;5064146;28;20202;-69
2021/04/30 05:19:29;;;;;;;17.43;9.27;;;;;;;;;;5062221;28;20172;-70
2021/04/30 05:21:54;;;;;;;17.43;8.63;;;;;;;;;;5063014;28;20193;-69
2021/04/30 05:24:19;;;;;;;16.23;8.97;;;;;;;;;;5062219;28;20176;-70
2021/04/30 05:26:45;;;;;;;20.20;8.87;;;;;;;;;;5059242;28;20223;-70
2021/04/30 05:29:11;;;;;;;16.73;8.83;;;;;;;;;;5063286;28;20211;-70
2021/04/30 05:31:37;;;;;;;16.90;9.97;;;;;;;;;;5061172;28;20193;-70
2021/04/30 05:34:02;;;;;;;20.03;9.43;;;;;;;;;;5062493;28;20185;-70
2021/04/30 05:36:27;;;;;;;19.53;10.07;;;;;;;;;;5065256;28;20208;-69
2021/04/30 05:38:52;;;;;;;23.10;11.07;;;;;;;;;;5066011;28;20177;-69
2021/04/30 05:41:18;;;;;;;19.27;10.47;;;;;;;;;;5056062;28;20197;-70
2021/04/30 05:43:43;;;;;;;16.93;10.23;;;;;;;;;;5064672;28;20324;-69
2021/04/30 05:46:08;;;;;;;22.63;11.53;;;;;;;;;;5059305;28;20590;-70
2021/04/30 05:48:33;;;;;;;18.57;11.50;;;;;;;;;;5058080;28;20196;-70
2021/04/30 05:50:59;;;;;;;16.70;10.40;;;;;;;;;;5059898;28;20236;-70
2021/04/30 05:53:24;;;;;;;23.97;10.93;;;;;;;;;;5063224;28;20242;-70
2021/04/30 05:55:49;;;;;;;30.13;11.60;;;;;;;;;;5067110;28;20174;-70
2021/04/30 05:58:15;;;;;;;24.97;11.70;;;;;;;;;;5063091;28;20565;-69
2021/04/30 06:00:40;;;;;;;30.10;13.43;;;;;;;;;;5064299;28;20193;-69
2021/04/30 06:03:05;;;;;;;17.07;11.47;;;;;;;;;;5060358;28;20185;-69
2021/04/30 06:05:30;;;;;;;18.37;11.17;;;;;;;;;;5058754;28;20184;-70
2021/04/30 06:07:55;;;;;;;25.67;13.13;;;;;;;;;;5065517;28;20246;-69
2021/04/30 06:10:20;;;;;;;18.63;12.53;;;;;;;;;;5059177;28;20181;-69
2021/04/30 06:12:46;;;;;;;23.83;11.70;;;;;;;;;;5060155;28;20205;-70
2021/04/30 06:15:11;;;;;;;28.53;13.47;;;;;;;;;;5056939;28;20613;-70
2021/04/30 06:17:36;;;;;;;22.20;12.53;;;;;;;;;;5060373;28;20231;-70
2021/04/30 06:20:01;;;;;;;21.33;12.60;;;;;;;;;;5070377;28;20173;-69
2021/04/30 06:22:27;;;;;;;32.07;14.83;;;;;;;;;;5067545;28;20217;-70
2021/04/30 06:24:52;;;;;;;26.40;13.30;;;;;;;;;;5067201;28;20184;-70
2021/04/30 06:27:17;;;;;;;22.53;13.13;;;;;;;;;;5068137;28;20275;-70
2021/04/30 06:29:42;;;;;;;23.83;13.57;;;;;;;;;;5065487;28;20186;-70
2021/04/30 06:32:07;;;;;;;25.33;13.20;;;;;;;;;;5064589;28;20196;-71
2021/04/30 06:34:33;;;;;;;22.87;13.73;;;;;;;;;;5070225;28;20188;-69
2021/04/30 06:36:58;;;;;;;22.67;14.40;;;;;;;;;;5072269;28;20200;-70
2021/04/30 06:39:23;;;;;;;23.57;14.67;;;;;;;;;;5061216;28;20174;-69
2021/04/30 06:41:49;;;;;;;21.07;15.37;;;;;;;;;;5063024;28;20201;-70
2021/04/30 06:44:15;;;;;;;27.30;15.33;;;;;;;;;;5064904;28;20211;-69
2021/04/30 06:46:40;;;;;;;25.10;15.37;;;;;;;;;;5060618;28;20181;-68
2021/04/30 06:49:05;;;;;;;26.17;15.87;;;;;;;;;;5067428;28;20184;-70
2021/04/30 06:51:30;;;;;;;27.57;16.37;;;;;;;;;;5070318;28;20598;-69
2021/04/30 06:53:55;;;;;;;27.80;16.10;;;;;;;;;;5071741;28;20173;-70
2021/04/30 06:56:21;;;;;;;24.93;15.17;;;;;;;;;;5063440;28;20609;-69
2021/04/30 06:58:46;;;;;;;24.37;16.33;;;;;;;;;;5073401;28;20610;-69
2021/04/30 07:01:12;;;;;;;22.00;14.77;;;;;;;;;;5067756;28;20193;-69
2021/04/30 07:03:39;;;;;;;28.83;16.00;;;;;;;;;;5065377;28;20169;-69
2021/04/30 07:06:04;;;;;;;24.13;15.70;;;;;;;;;;5067952;28;20276;-70
2021/04/30 07:08:29;;;;;;;27.87;15.77;;;;;;;;;;5065844;28;20173;-70
2021/04/30 07:10:54;;;;;;;25.30;15.20;;;;;;;;;;5062706;28;20690;-71
2021/04/30 07:13:20;;;;;;;31.43;16.20;;;;;;;;;;5063781;28;20218;-70
2021/04/30 07:15:45;;;;;;;23.87;15.63;;;;;;;;;;5064557;28;20482;-70
2021/04/30 07:18:10;;;;;;;29.63;17.17;;;;;;;;;;5064754;28;20206;-70
2021/04/30 07:20:35;;;;;;;29.60;16.97;;;;;;;;;;5063800;28;20179;-71
2021/04/30 07:23:01;;;;;;;20.17;16.00;;;;;;;;;;5064702;28;20578;-70
2021/04/30 07:25:27;;;;;;;28.63;18.50;;;;;;;;;;5054318;28;20555;-70
2021/04/30 07:27:52;;;;;;;28.23;17.87;;;;;;;;;;5063815;28;20173;-72
2021/04/30 07:30:18;;;;;;;28.13;17.50;;;;;;;;;;5070483;28;20169;-71
2021/04/30 07:32:43;;;;;;;24.30;17.60;;;;;;;;;;5060231;28;20804;-70
2021/04/30 07:35:09;;;;;;;29.13;18.33;;;;;;;;;;5064879;28;20259;-71
2021/04/30 07:37:34;;;;;;;23.33;16.30;;;;;;;;;;5061086;28;20212;-71
2021/04/30 07:39:59;;;;;;;27.50;17.87;;;;;;;;;;5067358;28;20165;-71
2021/04/30 07:42:25;;;;;;;20.97;15.47;;;;;;;;;;5066168;28;20185;-71
2021/04/30 07:44:50;;;;;;;33.63;18.80;;;;;;;;;;5063770;28;20207;-70
2021/04/30 07:47:15;;;;;;;29.53;17.57;;;;;;;;;;5058159;28;20271;-71
2021/04/30 07:49:41;;;;;;;32.23;19.43;;;;;;;;;;5061434;28;20185;-70
2021/04/30 07:52:06;;;;;;;27.50;18.60;;;;;;;;;;5064879;28;20497;-71
2021/04/30 07:54:31;;;;;;;26.43;20.10;;;;;;;;;;5058031;28;20188;-71
2021/04/30 07:56:57;;;;;;;30.10;19.00;;;;;;;;;;5064605;28;20196;-71
2021/04/30 07:59:22;;;;;;;23.43;18.00;;;;;;;;;;5060788;28;20246;-71
2021/04/30 08:01:48;;;;;;;26.30;17.40;;;;;;;;;;5061933;28;22253;-71
2021/04/30 08:04:13;;;;;;;28.03;19.30;;;;;;;;;;5061115;28;20199;-71
2021/04/30 08:06:38;;;;;;;28.70;19.30;;;;;;;;;;5061850;28;20243;-70
2021/04/30 08:09:04;;;;;;;27.17;18.53;;;;;;;;;;5060788;28;20185;-71
2021/04/30 08:11:30;;;;;;;30.20;19.97;;;;;;;;;;5059175;28;20206;-71
2021/04/30 08:13:55;;;;;;;29.17;21.37;;;;;;;;;;5056290;28;20215;-71
2021/04/30 08:16:21;;;;;;;27.63;19.73;;;;;;;;;;5057922;28;20177;-71
2021/04/30 08:18:46;;;;;;;33.97;22.13;;;;;;;;;;5059180;28;20185;-70
2021/04/30 08:21:11;;;;;;;28.27;19.20;;;;;;;;;;5062245;28;20651;-71
2021/04/30 08:23:37;;;;;;;28.43;17.87;;;;;;;;;;5063288;28;20178;-71
2021/04/30 08:26:02;;;;;;;16.83;14.10;;;;;;;;;;5054836;28;20189;-71
2021/04/30 08:28:28;;;;;;;16.20;14.47;;;;;;;;;;5059001;28;20181;-71
2021/04/30 08:30:53;;;;;;;16.53;13.83;;;;;;;;;;5056294;28;20181;-71
2021/04/30 08:33:19;;;;;;;16.77;14.37;;;;;;;;;;5057174;28;20178;-71
2021/04/30 08:35:44;;;;;;;15.93;14.23;;;;;;;;;;5057863;28;20701;-71
2021/04/30 08:38:09;;;;;;;19.67;14.93;;;;;;;;;;5062559;28;20196;-72
2021/04/30 08:40:35;;;;;;;16.40;14.67;;;;;;;;;;5063924;28;20252;-71
2021/04/30 08:43:00;;;;;;;20.33;15.93;;;;;;;;;;5058855;28;20216;-71
2021/04/30 08:45:26;;;;;;;20.67;15.37;;;;;;;;;;5063113;28;20186;-72
2021/04/30 08:47:52;;;;;;;16.87;14.83;;;;;;;;;;5057690;28;20196;-71
2021/04/30 08:50:17;;;;;;;17.13;15.23;;;;;;;;;;5054872;28;20185;-71
2021/04/30 08:52:42;;;;;;;20.67;13.87;;;;;;;;;;5060594;28;20205;-71
2021/04/30 08:55:12;;;;;;;16.53;14.17;;;;;;;;;;5058032;28;20182;-71
2021/04/30 08:57:38;;;;;;;16.07;13.53;;;;;;;;;;5059127;28;20201;-71
2021/04/30 09:00:04;;;;;;;16.80;13.93;;;;;;;;;;5065005;28;20180;-71
2021/04/30 09:02:31;;;;;;;19.13;16.17;;;;;;;;;;5058604;28;20308;-72
2021/04/30 09:04:57;;;;;;;16.80;14.97;;;;;;;;;;5061150;28;20173;-71
2021/04/30 09:07:24;;;;;;;18.40;15.60;;;;;;;;;;5056150;28;20697;-71
2021/04/30 09:09:57;;;;;;;20.10;15.57;;;;;;;;;;5066628;28;20177;-71
2021/04/30 09:12:23;;;;;;;17.90;14.50;;;;;;;;;;5062071;28;20283;-71
2021/04/30 09:14:48;;;;;;;15.60;14.00;;;;;;;;;;5058405;28;20188;-70
2021/04/30 09:17:17;;;;;;;15.17;13.60;;;;;;;;;;5065933;28;20204;-71
2021/04/30 09:19:55;;;;;;;15.80;13.27;;;;;;;;;;5055150;28;20181;-71
2021/04/30 09:22:23;;;;;;;13.17;11.53;;;;;;;;;;5056094;28;20200;-71
2021/04/30 09:24:49;;;;;;;15.50;13.73;;;;;;;;;;5058627;28;20181;-71
2021/04/30 09:27:27;;;;;;;14.00;12.60;;;;;;;;;;5061585;28;20230;-70
2021/04/30 09:29:52;;;;;;;14.27;12.80;;;;;;;;;;5056546;28;20180;-71
2021/04/30 09:32:17;;;;;;;13.17;11.27;;;;;;;;;;5059335;28;20278;-71
2021/04/30 09:34:43;;;;;;;12.77;11.47;;;;;;;;;;5059000;28;20208;-72
2021/04/30 09:37:16;;;;;;;11.80;10.53;;;;;;;;;;5059026;28;20200;-71
2021/04/30 09:39:48;;;;;;;13.40;11.67;;;;;;;;;;5059736;28;20651;-71
2021/04/30 09:42:16;;;;;;;11.70;10.53;;;;;;;;;;5060024;28;20200;-71
2021/04/30 09:44:42;;;;;;;10.57;9.57;;;;;;;;;;5060245;28;20205;-71
2021/04/30 09:47:14;;;;;;;12.00;10.73;;;;;;;;;;5056301;28;20662;-71
2021/04/30 09:49:40;;;;;;;12.77;10.40;;;;;;;;;;5060778;28;20196;-69
2021/04/30 09:52:07;;;;;;;11.83;9.70;;;;;;;;;;5056676;28;20193;-69
2021/04/30 09:54:33;;;;;;;11.13;8.90;;;;;;;;;;5062644;28;20207;-71
2021/04/30 09:57:07;;;;;;;11.13;9.27;;;;;;;;;;5064860;28;20204;-71
2021/04/30 09:59:33;;;;;;;11.30;10.13;;;;;;;;;;5058869;28;20551;-71
2021/04/30 10:02:17;;;;;;;12.83;9.93;;;;;;;;;;5064676;28;20218;-70
2021/04/30 10:04:43;;;;;;;11.67;10.47;;;;;;;;;;5060010;28;20752;-69
2021/04/30 10:07:09;;;;;;;13.10;11.80;;;;;;;;;;5066771;28;20639;-69
2021/04/30 10:09:35;;;;;;;13.23;11.87;;;;;;;;;;5069300;28;20176;-69
2021/04/30 10:12:19;;;;;;;15.30;13.27;;;;;;;;;;5066148;28;20185;-68
2021/04/30 10:14:44;;;;;;;14.43;11.80;;;;;;;;;;5058369;28;20206;-70
2021/04/30 10:17:11;;;;;;;14.87;12.53;;;;;;;;;;5062595;28;20224;-71
2021/04/30 10:19:36;;;;;;;13.00;11.70;;;;;;;;;;5064005;28;20172;-70
2021/04/30 10:22:02;;;;;;;14.73;12.90;;;;;;;;;;5064126;28;20520;-70
2021/04/30 10:24:28;;;;;;;14.87;12.97;;;;;;;;;;5065727;28;20250;-70
2021/04/30 10:26:56;;;;;;;14.00;12.10;;;;;;;;;;5060063;28;20456;-70
2021/04/30 10:29:23;;;;;;;14.77;12.03;;;;;;;;;;5058658;28;20559;-70
2021/04/30 10:31:50;;;;;;;14.33;12.90;;;;;;;;;;5067096;28;20229;-71
2021/04/30 10:34:23;;;;;;;13.37;12.00;;;;;;;;;;5067660;28;20217;-71
2021/04/30 10:36:49;;;;;;;13.47;12.07;;;;;;;;;;5063194;28;20212;-71
2021/04/30 10:39:35;;;;;;;18.03;13.27;;;;;;;;;;5058955;28;20238;-70
2021/04/30 10:42:10;;;;;;;14.43;11.43;;;;;;;;;;5058501;28;20192;-71
2021/04/30 10:44:39;;;;;;;14.00;12.43;;;;;;;;;;5061407;28;20650;-71
2021/04/30 10:47:04;;;;;;;11.90;10.70;;;;;;;;;;5059025;28;20196;-70
2021/04/30 10:49:30;;;;;;;11.60;10.40;;;;;;;;;;5062403;28;20602;-71
2021/04/30 10:52:08;;;;;;;12.40;11.13;;;;;;;;;;5065075;28;20457;-71
2021/04/30 10:54:36;;;;;;;12.77;11.57;;;;;;;;;;5062750;28;20187;-70
2021/04/30 10:57:04;;;;;;;13.63;12.30;;;;;;;;;;5063623;28;20595;-70
2021/04/30 10:59:36;;;;;;;13.27;11.97;;;;;;;;;;5065394;28;20660;-70
2021/04/30 11:02:31;;;;;;;13.93;12.00;;;;;;;;;;5066351;28;20189;-70
2021/04/30 11:05:12;;;;;;;13.13;11.05;;;;;;;;;;5059866;28;20724;-68
2021/04/30 11:07:47;;;;;;;11.30;10.30;;;;;;;;;;5060736;28;20181;-70
2021/04/30 11:10:21;;;;;;;11.77;10.55;;;;;;;;;;5060358;28;20181;-70
2021/04/30 11:13:18;;;;;;;12.55;11.35;;;;;;;;;;5063924;28;20215;-69
2021/04/30 11:15:43;;;;;;;11.35;10.07;;;;;;;;;;5058210;28;20174;-69
2021/04/30 11:18:09;;;;;;;12.52;10.48;;;;;;;;;;5059595;28;20700;-70
2021/04/30 11:20:35;;;;;;;10.85;9.13;;;;;;;;;;5064412;28;20177;-70
2021/04/30 11:23:19;;;;;;;10.98;9.73;;;;;;;;;;5065718;28;20192;-69
2021/04/30 11:25:59;;;;;;;11.25;10.07;;;;;;;;;;5065487;28;20263;-70
2021/04/30 11:28:45;;;;;;;10.85;9.77;;;;;;;;;;5065666;28;20181;-69
2021/04/30 11:31:11;;;;;;;11.50;9.52;;;;;;;;;;5064168;28;20773;-69
2021/04/30 11:33:37;;;;;;;10.93;9.85;;;;;;;;;;5066767;28;20187;-70
2021/04/30 11:36:04;;;;;;;10.95;9.90;;;;;;;;;;5058903;28;20224;-70
2021/04/30 11:38:42;;;;;;;11.02;9.98;;;;;;;;;;5063417;28;20212;-69
2021/04/30 11:41:08;;;;;;;10.00;9.02;;;;;;;;;;5060010;28;20194;-70
2021/04/30 11:43:36;;;;;;;9.10;8.20;;;;;;;;;;5055973;28;20186;-70
2021/04/30 11:46:01;;;;;;;11.18;9.02;;;;;;;;;;5059334;28;20207;-68
2021/04/30 11:48:28;;;;;;;10.77;8.60;;;;;;;;;;5059258;28;20752;-71
2021/04/30 11:50:59;;;;;;;9.65;8.73;;;;;;;;;;5055969;28;20195;-68
2021/04/30 11:53:24;;;;;;;8.00;7.15;;;;;;;;;;5060260;28;20678;-69
2021/04/30 11:55:51;;;;;;;7.97;7.28;;;;;;;;;;5060208;28;20189;-70
2021/04/30 11:58:16;;;;;;;8.25;7.55;;;;;;;;;;5063221;28;20209;-69
2021/04/30 12:00:41;;;;;;;8.98;8.10;;;;;;;;;;5060761;28;20611;-70
2021/04/30 12:03:08;;;;;;;7.85;7.15;;;;;;;;;;5061022;28;20651;-69
2021/04/30 12:05:33;;;;;;;8.50;7.68;;;;;;;;;;5063303;28;20192;-70
2021/04/30 12:07:59;;;;;;;11.00;7.75;;;;;;;;;;5058341;28;20169;-70
2021/04/30 12:10:26;;;;;;;8.90;7.70;;;;;;;;;;5060546;28;20828;-71
2021/04/30 12:12:51;;;;;;;8.32;7.53;;;;;;;;;;5065171;28;20192;-71
2021/04/30 12:15:24;;;;;;;8.70;7.88;;;;;;;;;;5059164;28;20189;-67
2021/04/30 12:17:50;;;;;;;8.70;7.90;;;;;;;;;;5059848;28;20197;-67
2021/04/30 12:20:19;;;;;;;9.07;7.80;;;;;;;;;;5066345;28;20253;-67
2021/04/30 12:22:47;;;;;;;11.35;8.25;;;;;;;;;;5065122;28;20686;-68
2021/04/30 12:25:27;;;;;;;8.55;7.78;;;;;;;;;;5063355;28;20545;-68
2021/04/30 12:27:52;;;;;;;7.72;7.03;;;;;;;;;;5060774;28;20670;-68
2021/04/30 12:30:28;;;;;;;8.57;7.77;;;;;;;;;;5071069;28;20231;-69
2021/04/30 12:32:54;;;;;;;8.23;7.43;;;;;;;;;;5067658;28;20613;-69
2021/04/30 12:35:19;;;;;;;7.90;7.20;;;;;;;;;;5067081;28;20177;-68
2021/04/30 12:37:44;;;;;;;9.43;8.20;;;;;;;;;;5057389;28;20213;-68
2021/04/30 12:40:10;;;;;;;9.45;8.55;;;;;;;;;;5059986;28;20633;-68
2021/04/30 12:42:48;;;;;;;11.93;10.55;;;;;;;;;;5066287;28;20276;-68
2021/04/30 12:45:14;;;;;;;9.65;8.75;;;;;;;;;;5062757;28;20189;-69
2021/04/30 12:47:40;;;;;;;10.43;9.48;;;;;;;;;;5062047;28;20552;-69
2021/04/30 12:50:06;;;;;;;7.22;6.53;;;;;;;;;;5064994;28;20739;-69
2021/04/30 12:52:31;;;;;;;6.65;6.00;;;;;;;;;;5060803;28;20204;-70
2021/04/30 12:54:56;;;;;;;6.88;6.28;;;;;;;;;;5057932;28;20269;-69
2021/04/30 12:57:25;;;;;;;16.02;14.57;;;;;;;;;;5066704;28;20200;-69
2021/04/30 12:59:57;;;;;;;16.63;15.07;;;;;;;;;;5064184;28;20178;-68
2021/04/30 13:02:29;;;;;;;15.32;14.05;;;;;;;;;;5067161;28;20231;-68
2021/04/30 13:04:55;;;;;;;10.68;9.68;;;;;;;;;;5067245;28;20207;-69
2021/04/30 13:07:20;;;;;;;13.45;12.27;;;;;;;;;;5067051;28;20213;-69
2021/04/30 13:09:45;;;;;;;13.43;12.32;;;;;;;;;;5057424;28;20258;-68
2021/04/30 13:12:12;;;;;;;26.23;24.40;;;;;;;;;;5070971;28;20189;-70
2021/04/30 13:14:47;;;;;;;11.73;10.82;;;;;;;;;;5069270;28;20218;-70
2021/04/30 13:17:26;;;;;;;8.35;7.65;;;;;;;;;;5065439;28;20192;-70
2021/04/30 13:19:52;;;;;;;8.55;7.75;;;;;;;;;;5065205;28;20674;-70
2021/04/30 13:22:18;;;;;;;7.05;6.35;;;;;;;;;;5067163;28;20617;-69
2021/04/30 13:24:44;;;;;;;9.73;8.93;;;;;;;;;;5057080;28;20166;-70
2021/04/30 13:27:11;;;;;;;27.48;25.50;;;;;;;;;;5060903;28;20184;-69
2021/04/30 13:29:38;;;;;;;12.13;11.07;;;;;;;;;;5061833;28;20190;-70
2021/04/30 13:32:03;;;;;;;10.77;9.77;;;;;;;;;;5062205;28;20894;-69
2021/04/30 13:34:37;;;;;;;11.50;10.50;;;;;;;;;;5062880;28;20204;-69
2021/04/30 13:37:03;;;;;;;9.00;8.20;;;;;;;;;;5057297;28;20197;-70
2021/04/30 13:39:31;;;;;;;9.57;8.68;;;;;;;;;;5062279;28;20291;-69
2021/04/30 13:41:56;;;;;;;8.43;7.70;;;;;;;;;;5061924;28;20623;-69
2021/04/30 13:44:22;;;;;;;21.20;19.40;;;;;;;;;;5063352;28;20260;-69
2021/04/30 13:46:54;;;;;;;10.68;9.77;;;;;;;;;;5053598;28;20281;-69
2021/04/30 13:49:20;;;;;;;7.40;6.63;;;;;;;;;;5057342;28;20172;-70
2021/04/30 13:51:45;;;;;;;7.35;6.72;;;;;;;;;;5063562;28;20235;-70
2021/04/30 13:54:10;;;;;;;14.05;12.80;;;;;;;;;;5056260;28;20201;-69
2021/04/30 13:56:36;;;;;;;8.18;7.43;;;;;;;;;;5057871;28;20219;-69
2021/04/30 13:59:05;;;;;;;9.35;8.55;;;;;;;;;;5059507;28;20173;-69
2021/04/30 14:01:33;;;;;;;9.98;9.10;;;;;;;;;;5053683;28;20255;-69
2021/04/30 14:03:59;;;;;;;9.00;8.23;;;;;;;;;;5055228;28;20184;-69
2021/04/30 14:06:24;;;;;;;9.52;8.63;;;;;;;;;;5057850;28;20173;-69
2021/04/30 14:08:50;;;;;;;10.05;9.15;;;;;;;;;;5059314;28;20217;-69
2021/04/30 14:11:15;;;;;;;9.85;8.95;;;;;;;;;;5061104;28;20682;-69
2021/04/30 14:13:40;;;;;;;8.10;7.40;;;;;;;;;;5055521;28;20194;-69
2021/04/30 14:16:06;;;;;;;9.10;8.18;;;;;;;;;;5059770;28;20610;-70
2021/04/30 14:18:31;;;;;;;8.20;7.50;;;;;;;;;;5057606;28;20201;-70
2021/04/30 14:20:56;;;;;;;7.90;7.20;;;;;;;;;;5061972;28;20192;-70
2021/04/30 14:23:22;;;;;;;7.50;6.90;;;;;;;;;;5062620;28;20739;-70